createdAt,value
2023-03-24T00:00:05.981Z,6.00
2023-03-24T00:02:37.661Z,4.95
2023-03-24T00:05:05.514Z,5.25
2023-03-24T00:07:35.415Z,4.25
2023-03-24T00:10:02.401Z,5.68
2023-03-24T00:12:28.907Z,4.65
2023-03-24T00:14:55.383Z,6.47
2023-03-24T00:17:25.364Z,4.47
2023-03-24T00:19:52.562Z,6.50
2023-03-24T00:22:21.251Z,5.50
2023-03-24T00:24:49.589Z,6.20
2023-03-24T00:27:17.768Z,4.75
2023-03-24T00:29:44.650Z,4.60
2023-03-24T00:32:11.467Z,8.10
2023-03-24T00:34:38.439Z,5.90
2023-03-24T00:37:06.478Z,5.13
2023-03-24T00:39:33.460Z,5.45
2023-03-24T00:42:01.763Z,8.27
2023-03-24T00:44:28.764Z,5.85
2023-03-24T00:46:55.704Z,7.75
2023-03-24T00:49:42.471Z,6.43
2023-03-24T00:52:18.063Z,5.15
2023-03-24T00:54:46.421Z,9.13
2023-03-24T00:57:14.704Z,6.63
2023-03-24T00:59:48.946Z,6.47
2023-03-24T01:02:24.393Z,6.43
2023-03-24T01:04:56.620Z,7.10
2023-03-24T01:07:28.263Z,6.38
2023-03-24T01:09:57.880Z,6.68
2023-03-24T01:12:26.384Z,6.78
2023-03-24T01:14:53.740Z,6.00
2023-03-24T01:17:25.623Z,6.05
2023-03-24T01:19:56.303Z,6.80
2023-03-24T01:22:28.711Z,6.80
2023-03-24T01:24:55.882Z,5.68
2023-03-24T01:27:22.935Z,6.47
2023-03-24T01:29:49.464Z,5.68
2023-03-24T01:32:16.094Z,7.63
2023-03-24T01:34:42.682Z,6.03
2023-03-24T01:37:09.296Z,4.85
2023-03-24T01:39:35.844Z,5.07
2023-03-24T01:42:02.415Z,6.43
2023-03-24T01:44:31.650Z,4.57
2023-03-24T01:46:59.034Z,4.78
2023-03-24T01:49:31.506Z,4.78
2023-03-24T01:52:01.932Z,5.28
2023-03-24T01:54:34.940Z,5.25
2023-03-24T01:57:11.322Z,5.10
2023-03-24T01:59:42.997Z,5.63
2023-03-24T02:02:13.896Z,4.93
2023-03-24T02:04:50.356Z,4.20
2023-03-24T02:07:34.466Z,5.15
2023-03-24T02:10:08.678Z,6.27
2023-03-24T02:12:35.822Z,5.35
2023-03-24T02:15:06.486Z,4.40
2023-03-24T02:18:00.450Z,6.43
2023-03-24T02:20:33.267Z,5.78
2023-03-24T02:23:27.143Z,4.40
2023-03-24T02:26:03.227Z,5.10
2023-03-24T02:28:52.554Z,5.32
2023-03-24T02:31:38.659Z,7.43
2023-03-24T02:34:55.144Z,7.25
2023-03-24T02:37:29.812Z,6.72
2023-03-24T02:40:17.496Z,4.80
2023-03-24T02:43:00.377Z,6.75
2023-03-24T02:45:32.760Z,6.40
2023-03-24T02:48:14.490Z,6.30
2023-03-24T02:50:45.782Z,6.93
2023-03-24T02:53:32.864Z,6.25
2023-03-24T02:56:30.046Z,5.00
2023-03-24T02:59:17.980Z,6.53
2023-03-24T03:02:03.811Z,5.78
2023-03-24T03:05:17.129Z,6.57
2023-03-24T03:07:46.075Z,8.25
2023-03-24T03:10:20.323Z,5.95
2023-03-24T03:12:50.651Z,6.57
2023-03-24T03:15:23.581Z,7.88
2023-03-24T03:17:59.903Z,6.63
2023-03-24T03:20:34.714Z,8.40
2023-03-24T03:23:07.995Z,8.32
2023-03-24T03:25:42.126Z,6.72
2023-03-24T03:28:11.990Z,7.00
2023-03-24T03:30:43.509Z,7.30
2023-03-24T03:33:24.620Z,7.53
2023-03-24T03:35:56.981Z,8.38
2023-03-24T03:39:07.002Z,6.75
2023-03-24T03:41:33.608Z,9.15
2023-03-24T03:44:01.037Z,7.57
2023-03-24T03:46:28.261Z,10.57
2023-03-24T03:48:56.027Z,10.45
2023-03-24T03:51:22.625Z,8.65
2023-03-24T03:53:58.356Z,9.65
2023-03-24T03:56:29.094Z,8.38
2023-03-24T03:59:28.930Z,9.98
2023-03-24T04:01:57.176Z,8.70
2023-03-24T04:05:05.617Z,7.82
2023-03-24T04:07:45.018Z,9.98
2023-03-24T04:11:04.727Z,11.73
2023-03-24T04:14:02.706Z,12.02
2023-03-24T04:16:53.635Z,10.00
2023-03-24T04:19:39.453Z,9.95
2023-03-24T04:22:32.241Z,8.73
2023-03-24T04:25:35.203Z,9.40
2023-03-24T04:28:41.360Z,8.45
2023-03-24T04:31:27.770Z,11.10
2023-03-24T04:34:03.094Z,8.23
2023-03-24T04:36:44.282Z,7.88
2023-03-24T04:39:31.897Z,7.93
2023-03-24T04:42:04.551Z,9.27
2023-03-24T04:44:33.286Z,7.78
2023-03-24T04:47:28.528Z,8.85
2023-03-24T04:50:11.204Z,9.27
2023-03-24T04:52:42.518Z,8.55
2023-03-24T04:55:49.311Z,7.88
2023-03-24T04:58:22.107Z,8.93
2023-03-24T05:00:49.953Z,9.32
2023-03-24T05:03:17.753Z,9.48
2023-03-24T05:05:46.055Z,6.00
2023-03-24T05:08:13.140Z,7.18
2023-03-24T05:10:40.847Z,7.88
2023-03-24T05:13:08.921Z,7.57
2023-03-24T05:15:54.779Z,8.68
2023-03-24T05:18:30.339Z,6.40
2023-03-24T05:20:57.687Z,9.45
2023-03-24T05:23:25.205Z,6.88
2023-03-24T05:25:52.569Z,6.53
2023-03-24T05:28:22.410Z,8.85
2023-03-24T05:30:49.636Z,8.10
2023-03-24T05:33:39.297Z,8.63
2023-03-24T05:36:06.465Z,7.53
2023-03-24T05:38:34.081Z,8.68
2023-03-24T05:41:01.130Z,8.45
2023-03-24T05:43:33.563Z,7.43
2023-03-24T05:46:26.671Z,7.60
2023-03-24T05:48:53.721Z,7.40
2023-03-24T05:51:21.329Z,7.35
2023-03-24T05:53:57.042Z,6.20
2023-03-24T05:56:32.780Z,10.30
2023-03-24T05:59:19.116Z,7.95
2023-03-24T06:02:09.090Z,8.45
2023-03-24T06:04:46.631Z,8.23
2023-03-24T06:07:16.601Z,9.45
2023-03-24T06:09:52.582Z,7.68
2023-03-24T06:12:21.694Z,7.60
2023-03-24T06:14:58.330Z,7.10
2023-03-24T06:17:25.673Z,8.88
2023-03-24T06:20:05.279Z,6.63
2023-03-24T06:22:45.038Z,7.32
2023-03-24T06:25:16.736Z,7.23
2023-03-24T06:27:52.001Z,7.70
2023-03-24T06:30:22.638Z,8.38
2023-03-24T06:32:52.530Z,6.07
2023-03-24T06:35:19.748Z,6.30
2023-03-24T06:37:59.048Z,6.75
2023-03-24T06:40:26.455Z,6.97
2023-03-24T06:43:22.333Z,5.13
2023-03-24T06:45:49.526Z,6.38
2023-03-24T06:48:19.431Z,9.20
2023-03-24T06:50:46.645Z,4.85
2023-03-24T06:53:13.708Z,6.15
2023-03-24T06:55:41.489Z,6.78
2023-03-24T06:58:10.298Z,6.65
2023-03-24T07:00:55.252Z,6.32
2023-03-24T07:03:43.716Z,5.72
2023-03-24T07:06:16.673Z,7.78
2023-03-24T07:08:45.863Z,6.82
2023-03-24T07:11:14.920Z,6.13
2023-03-24T07:13:49.838Z,8.93
2023-03-24T07:16:16.523Z,5.22
2023-03-24T07:18:44.005Z,9.80
2023-03-24T07:21:10.888Z,6.30
2023-03-24T07:23:37.529Z,5.63
2023-03-24T07:26:13.458Z,6.32
2023-03-24T07:28:54.408Z,8.05
2023-03-24T07:31:39.398Z,7.38
2023-03-24T07:34:09.194Z,8.02
2023-03-24T07:36:37.846Z,4.95
2023-03-24T07:39:07.003Z,5.88
2023-03-24T07:41:36.534Z,6.05
2023-03-24T07:44:10.055Z,6.28
2023-03-24T07:46:40.414Z,5.22
2023-03-24T07:49:18.209Z,5.47
2023-03-24T07:51:51.652Z,4.80
2023-03-24T07:54:38.590Z,4.60
2023-03-24T07:57:05.598Z,5.63
2023-03-24T07:59:34.130Z,5.43
2023-03-24T08:02:33.132Z,5.30
2023-03-24T08:05:22.379Z,4.43
2023-03-24T08:08:15.625Z,5.93
2023-03-24T08:10:42.729Z,4.95
2023-03-24T08:13:09.235Z,4.35
2023-03-24T08:15:35.806Z,5.70
2023-03-24T08:18:02.346Z,5.68
2023-03-24T08:20:29.530Z,5.13
2023-03-24T08:22:56.779Z,4.63
2023-03-24T08:25:25.920Z,5.68
2023-03-24T08:27:55.869Z,4.00
2023-03-24T08:30:24.978Z,3.78
2023-03-24T08:32:57.563Z,4.18
2023-03-24T08:35:28.404Z,5.03
2023-03-24T08:37:54.961Z,5.20
2023-03-24T08:40:24.235Z,4.47
2023-03-24T08:42:56.550Z,4.75
2023-03-24T08:45:27.573Z,6.53
2023-03-24T08:47:55.428Z,4.18
2023-03-24T08:50:24.080Z,4.25
2023-03-24T08:52:50.705Z,6.50
2023-03-24T08:55:19.096Z,3.78
2023-03-24T08:57:46.589Z,3.70
2023-03-24T09:00:15.308Z,2.85
2023-03-24T09:02:43.721Z,3.20
2023-03-24T09:05:11.321Z,3.17
2023-03-24T09:07:38.324Z,3.13
2023-03-24T09:10:06.677Z,4.90
2023-03-24T09:12:33.958Z,2.28
2023-03-24T09:15:00.690Z,2.90
2023-03-24T09:17:27.278Z,3.65
2023-03-24T09:19:53.916Z,3.35
2023-03-24T09:22:20.361Z,4.28
2023-03-24T09:24:49.082Z,3.38
2023-03-24T09:27:16.513Z,3.05
2023-03-24T09:29:43.853Z,5.85
2023-03-24T09:32:10.861Z,6.93
2023-03-24T09:34:38.313Z,3.90
2023-03-24T09:37:05.844Z,3.17
2023-03-24T09:39:36.797Z,4.22
2023-03-24T09:42:05.514Z,3.80
2023-03-24T09:44:41.118Z,2.90
2023-03-24T09:47:26.739Z,2.63
2023-03-24T09:49:55.537Z,2.95
2023-03-24T09:52:29.450Z,3.33
2023-03-24T09:57:30.715Z,2.47
2023-03-24T09:59:57.384Z,2.75
2023-03-24T10:02:24.085Z,3.08
2023-03-24T10:04:50.860Z,2.97
2023-03-24T10:07:25.251Z,1.35
2023-03-24T10:09:59.210Z,1.25
2023-03-24T10:12:45.983Z,1.63
2023-03-24T10:15:51.436Z,1.95
2023-03-24T10:18:29.791Z,1.20
2023-03-24T10:21:16.914Z,2.55
2023-03-24T10:24:04.901Z,1.38
2023-03-24T10:26:36.583Z,3.28
2023-03-24T10:29:30.114Z,3.00
2023-03-24T10:32:15.478Z,4.00
2023-03-24T10:34:44.599Z,3.15
2023-03-24T10:37:13.692Z,0.80
2023-03-24T10:39:44.547Z,2.83
2023-03-24T10:42:24.167Z,3.67
2023-03-24T10:44:51.651Z,5.60
2023-03-24T10:47:28.990Z,2.92
2023-03-24T10:50:12.776Z,3.00
2023-03-24T10:52:48.641Z,1.90
2023-03-24T10:55:19.381Z,2.67
2023-03-24T10:57:53.635Z,6.72
2023-03-24T11:00:31.642Z,2.60
2023-03-24T11:03:06.106Z,5.32
2023-03-24T11:05:36.512Z,3.80
2023-03-24T11:08:33.978Z,6.53
2023-03-24T11:11:00.582Z,4.43
2023-03-24T11:13:34.469Z,2.45
2023-03-24T11:16:07.314Z,2.17
2023-03-24T11:18:34.010Z,1.88
2023-03-24T11:21:06.083Z,2.85
2023-03-24T11:23:39.879Z,3.67
2023-03-24T11:28:46.937Z,1.90
2023-03-24T11:31:24.877Z,2.60
2023-03-24T11:34:02.754Z,3.28
2023-03-24T11:36:30.667Z,3.58
2023-03-24T11:39:07.896Z,2.55
2023-03-24T11:41:37.262Z,3.97
2023-03-24T11:44:23.876Z,3.72
2023-03-24T11:46:57.161Z,2.38
2023-03-24T11:49:28.956Z,2.38
2023-03-24T11:51:55.944Z,6.13
2023-03-24T11:54:30.057Z,3.42
2023-03-24T11:57:01.983Z,3.38
2023-03-24T11:59:57.886Z,4.55
2023-03-24T12:02:50.303Z,5.63
2023-03-24T12:05:36.817Z,4.25
2023-03-24T12:08:22.164Z,3.28
2023-03-24T12:11:10.514Z,4.45
2023-03-24T12:13:41.948Z,2.63
2023-03-24T12:16:29.916Z,3.40
2023-03-24T12:19:27.700Z,2.70
2023-03-24T12:22:01.834Z,3.53
2023-03-24T12:24:44.403Z,3.20
2023-03-24T12:27:48.175Z,3.92
2023-03-24T12:30:53.525Z,2.20
2023-03-24T12:33:31.254Z,2.20
2023-03-24T12:36:07.212Z,5.72
2023-03-24T12:38:42.590Z,2.10
2023-03-24T12:41:41.209Z,3.63
2023-03-24T12:44:29.082Z,4.88
2023-03-24T12:47:23.142Z,3.25
2023-03-24T12:50:10.958Z,2.85
2023-03-24T12:53:08.230Z,2.80
2023-03-24T12:55:48.345Z,3.95
2023-03-24T12:58:32.558Z,3.35
2023-03-24T13:03:41.554Z,5.22
2023-03-24T13:06:17.897Z,4.90
2023-03-24T13:08:52.643Z,6.55
2023-03-24T13:11:32.799Z,3.67
2023-03-24T13:14:03.567Z,4.10
2023-03-24T13:16:35.526Z,3.05
2023-03-24T13:19:03.497Z,2.95
2023-03-24T13:21:35.120Z,3.30
2023-03-24T13:24:10.699Z,4.65
2023-03-24T13:26:51.495Z,4.18
2023-03-24T13:29:49.824Z,5.25
2023-03-24T13:32:23.344Z,6.03
2023-03-24T13:37:41.280Z,4.97
2023-03-24T13:40:21.157Z,2.03
2023-03-24T13:42:53.836Z,3.03
2023-03-24T13:45:41.446Z,5.53
2023-03-24T13:48:11.242Z,2.90
2023-03-24T13:50:41.835Z,4.53
2023-03-24T13:53:14.957Z,3.55
2023-03-24T13:55:49.364Z,3.15
2023-03-24T13:58:23.696Z,3.67
2023-03-24T14:01:09.869Z,3.05
2023-03-24T14:03:41.687Z,4.05
2023-03-24T14:06:09.764Z,3.33
2023-03-24T14:08:51.950Z,2.03
2023-03-24T14:11:38.518Z,3.60
2023-03-24T14:14:16.340Z,3.80
2023-03-24T14:16:51.903Z,4.55
2023-03-24T14:19:32.610Z,3.03
2023-03-24T14:22:13.266Z,2.42
2023-03-24T14:24:46.099Z,3.08
2023-03-24T14:27:23.569Z,4.85
2023-03-24T14:29:53.725Z,3.42
2023-03-24T14:32:23.039Z,3.65
2023-03-24T14:34:57.033Z,2.85
2023-03-24T14:37:25.550Z,4.47
2023-03-24T14:39:52.745Z,5.22
2023-03-24T14:42:47.929Z,4.88
2023-03-24T14:45:32.016Z,3.80
2023-03-24T14:48:01.583Z,3.00
2023-03-24T14:50:29.048Z,5.47
2023-03-24T14:53:00.225Z,2.78
2023-03-24T14:55:27.927Z,4.63
2023-03-24T14:57:57.456Z,4.82
2023-03-24T15:00:31.127Z,2.83
2023-03-24T15:03:19.350Z,3.60
2023-03-24T15:05:46.203Z,8.82
2023-03-24T15:08:26.791Z,3.70
2023-03-24T15:11:00.505Z,5.78
2023-03-24T15:15:57.813Z,3.55
2023-03-24T15:18:28.007Z,5.40
2023-03-24T15:20:55.505Z,5.85
2023-03-24T15:23:31.330Z,6.32
2023-03-24T15:25:57.966Z,4.68
2023-03-24T15:28:26.846Z,4.20
2023-03-24T15:30:56.058Z,6.90
2023-03-24T15:33:23.526Z,4.05
2023-03-24T15:35:57.093Z,5.95
2023-03-24T15:38:32.153Z,4.63
2023-03-24T15:41:18.907Z,4.88
2023-03-24T15:43:53.610Z,5.32
2023-03-24T15:46:27.183Z,3.88
2023-03-24T15:52:00.675Z,5.32
2023-03-24T15:54:31.256Z,2.80
2023-03-24T15:57:14.672Z,4.95
2023-03-24T15:59:47.801Z,3.22
2023-03-24T16:02:50.636Z,5.30
2023-03-24T16:05:26.605Z,4.57
2023-03-24T16:08:08.214Z,3.78
2023-03-24T16:10:40.596Z,4.60
2023-03-24T16:13:16.558Z,2.83
2023-03-24T16:15:46.856Z,2.58
2023-03-24T16:18:21.236Z,5.10
2023-03-24T16:20:48.057Z,2.65
2023-03-24T16:23:15.228Z,3.72
2023-03-24T16:25:42.209Z,4.00
2023-03-24T16:28:17.638Z,2.88
2023-03-24T16:30:44.975Z,4.60
2023-03-24T16:33:12.654Z,4.93
2023-03-24T16:35:39.598Z,2.75
2023-03-24T16:38:06.276Z,3.60
2023-03-24T16:40:37.488Z,4.38
2023-03-24T16:43:04.330Z,3.53
2023-03-24T16:45:31.794Z,4.72
2023-03-24T16:47:59.234Z,7.18
2023-03-24T16:50:31.965Z,4.80
2023-03-24T16:52:58.657Z,5.63
2023-03-24T16:55:25.393Z,10.38
2023-03-24T16:57:52.320Z,6.07
2023-03-24T17:00:19.224Z,7.03
2023-03-24T17:02:48.259Z,5.85
2023-03-24T17:05:30.120Z,4.85
2023-03-24T17:07:57.501Z,6.22
2023-03-24T17:10:25.645Z,4.88
2023-03-24T17:12:55.306Z,2.70
2023-03-24T17:15:27.715Z,4.68
2023-03-24T17:17:55.625Z,4.90
2023-03-24T17:20:23.259Z,7.63
2023-03-24T17:22:52.649Z,6.70
2023-03-24T17:25:22.417Z,6.57
2023-03-24T17:27:50.431Z,2.15
2023-03-24T17:30:23.182Z,6.63
2023-03-24T17:32:50.074Z,6.13
2023-03-24T17:35:19.683Z,7.25
2023-03-24T17:37:47.961Z,3.78
2023-03-24T17:40:17.081Z,8.07
2023-03-24T17:42:46.661Z,7.47
2023-03-24T17:45:16.015Z,4.28
2023-03-24T17:47:42.965Z,4.18
2023-03-24T17:50:09.979Z,5.35
2023-03-24T17:52:44.511Z,6.18
2023-03-24T17:55:12.761Z,3.22
2023-03-24T17:57:39.527Z,6.55
2023-03-24T18:00:08.810Z,3.85
2023-03-24T18:02:35.495Z,5.53
2023-03-24T18:05:02.240Z,3.20
2023-03-24T18:07:29.441Z,4.25
2023-03-24T18:09:56.033Z,10.38
2023-03-24T18:12:23.785Z,4.35
2023-03-24T18:14:50.457Z,5.78
2023-03-24T18:17:17.122Z,5.20
2023-03-24T18:19:43.858Z,5.18
2023-03-24T18:22:10.715Z,4.47
2023-03-24T18:24:37.732Z,5.63
2023-03-24T18:27:06.077Z,3.20
2023-03-24T18:29:32.686Z,4.93
2023-03-24T18:31:59.316Z,5.68
2023-03-24T18:34:26.595Z,6.90
2023-03-24T18:36:53.378Z,6.82
2023-03-24T18:39:19.964Z,7.35
2023-03-24T18:41:47.995Z,5.93
2023-03-24T18:44:15.649Z,8.52
2023-03-24T18:46:43.286Z,4.28
2023-03-24T18:49:14.336Z,2.78
2023-03-24T18:51:41.922Z,2.22
2023-03-24T18:54:09.565Z,2.30
2023-03-24T18:56:36.365Z,2.90
2023-03-24T18:59:03.348Z,3.13
2023-03-24T19:01:30.277Z,4.95
2023-03-24T19:03:57.197Z,8.02
2023-03-24T19:06:30.796Z,5.85
2023-03-24T19:08:58.414Z,6.93
2023-03-24T19:11:26.273Z,5.57
2023-03-24T19:13:55.882Z,4.20
2023-03-24T19:16:22.672Z,3.67
2023-03-24T19:18:50.547Z,1.50
2023-03-24T19:21:17.846Z,5.78
2023-03-24T19:23:46.667Z,2.22
2023-03-24T19:26:14.025Z,3.60
2023-03-24T19:28:41.257Z,2.70
2023-03-24T19:31:13.526Z,6.30
2023-03-24T19:33:41.139Z,4.72
2023-03-24T19:36:08.965Z,5.50
2023-03-24T19:38:37.543Z,5.32
2023-03-24T19:41:06.310Z,5.20
2023-03-24T19:43:34.521Z,4.10
2023-03-24T19:46:01.048Z,9.32
2023-03-24T19:48:27.679Z,8.80
2023-03-24T19:50:55.484Z,12.20
2023-03-24T19:53:24.003Z,4.88
2023-03-24T19:55:50.970Z,5.68
2023-03-24T19:58:18.124Z,7.65
2023-03-24T20:00:44.838Z,4.30
2023-03-24T20:03:11.579Z,3.03
2023-03-24T20:05:38.234Z,3.63
2023-03-24T20:08:05.398Z,6.05
2023-03-24T20:10:32.006Z,3.70
2023-03-24T20:12:58.585Z,4.53
2023-03-24T20:15:25.167Z,3.42
2023-03-24T20:17:52.424Z,3.33
2023-03-24T20:20:19.141Z,3.65
2023-03-24T20:22:46.266Z,5.03
2023-03-24T20:25:14.940Z,5.15
2023-03-24T20:27:41.994Z,3.30
2023-03-24T20:30:09.369Z,3.55
2023-03-24T20:32:36.121Z,3.83
2023-03-24T20:35:05.377Z,3.00
2023-03-24T20:37:35.544Z,2.97
2023-03-24T20:40:05.190Z,6.10
2023-03-24T20:42:31.809Z,8.35
2023-03-24T20:44:58.445Z,2.85
2023-03-24T20:47:24.992Z,3.65
2023-03-24T20:49:51.662Z,1.83
2023-03-24T20:52:20.550Z,4.32
2023-03-24T20:54:47.126Z,4.00
2023-03-24T20:57:13.666Z,6.57
2023-03-24T20:59:40.235Z,2.45
2023-03-24T21:02:09.908Z,2.65
2023-03-24T21:04:36.490Z,2.95
2023-03-24T21:07:03.101Z,6.60
2023-03-24T21:09:29.666Z,5.78
2023-03-24T21:11:56.222Z,3.03
2023-03-24T21:14:23.099Z,5.32
2023-03-24T21:16:49.873Z,7.85
2023-03-24T21:19:16.824Z,6.07
2023-03-24T21:21:44.641Z,3.72
2023-03-24T21:24:13.244Z,5.15
2023-03-24T21:26:39.932Z,3.20
2023-03-24T21:29:10.400Z,3.38
2023-03-24T21:31:37.469Z,3.83
2023-03-24T21:34:04.035Z,6.35
2023-03-24T21:36:31.007Z,6.20
2023-03-24T21:38:58.542Z,1.83
2023-03-24T21:41:25.439Z,5.00
2023-03-24T21:43:54.035Z,2.28
2023-03-24T21:46:22.223Z,4.63
2023-03-24T21:48:51.793Z,5.13
2023-03-24T21:51:20.548Z,4.13
2023-03-24T21:53:47.694Z,6.90
2023-03-24T21:56:14.737Z,3.35
2023-03-24T21:58:41.512Z,3.15
2023-03-24T22:01:08.841Z,6.07
2023-03-24T22:03:37.257Z,7.28
2023-03-24T22:06:05.155Z,4.05
2023-03-24T22:08:32.076Z,2.88
2023-03-24T22:11:00.451Z,3.58
2023-03-24T22:13:28.244Z,3.40
2023-03-24T22:15:56.812Z,2.15
2023-03-24T22:18:25.104Z,4.93
2023-03-24T22:21:04.099Z,4.43
2023-03-24T22:23:36.716Z,4.03
2023-03-24T22:26:06.119Z,4.03
2023-03-24T22:28:34.063Z,5.07
2023-03-24T22:31:09.067Z,4.82
2023-03-24T22:33:36.445Z,3.17
2023-03-24T22:36:04.354Z,2.45
2023-03-24T22:38:32.678Z,3.50
2023-03-24T22:41:01.073Z,3.20
2023-03-24T22:43:29.047Z,3.50
2023-03-24T22:45:56.172Z,5.80
2023-03-24T22:48:23.561Z,4.28
2023-03-24T22:50:51.029Z,3.22
2023-03-24T22:53:17.630Z,5.72
2023-03-24T22:55:44.947Z,3.97
2023-03-24T22:58:13.336Z,4.95
2023-03-24T23:00:41.301Z,1.77
2023-03-24T23:03:08.731Z,7.22
2023-03-24T23:05:40.090Z,3.90
2023-03-24T23:08:07.501Z,3.05
2023-03-24T23:10:34.041Z,3.17
2023-03-24T23:13:00.667Z,6.10
2023-03-24T23:15:27.133Z,8.80
2023-03-24T23:17:53.733Z,3.78
2023-03-24T23:20:20.989Z,2.90
2023-03-24T23:22:47.825Z,2.25
2023-03-24T23:25:15.190Z,4.80
2023-03-24T23:27:41.892Z,4.15
2023-03-24T23:30:11.002Z,4.28
2023-03-24T23:32:38.710Z,5.07
2023-03-24T23:35:06.612Z,2.53
2023-03-24T23:37:34.007Z,5.72
2023-03-24T23:40:05.948Z,7.68
2023-03-24T23:42:33.816Z,5.65
2023-03-24T23:45:00.589Z,3.30
2023-03-24T23:47:27.396Z,6.50
2023-03-24T23:49:54.334Z,3.83
2023-03-24T23:52:20.974Z,4.03
2023-03-24T23:54:47.532Z,4.60
2023-03-24T23:57:14.108Z,3.53
2023-03-24T23:59:40.625Z,4.45
